Clarks Grove, Minnesota
Current Conditions -  °F | °C
As of 11:54 PM on Thursday 30 Oct 2014 (Local Time) from KAEL Reporting Station
Overcast Overcast  
Wind Chill: 27°   Ceiling: 4600
Heat Index: 37°   Visibility: 10mi
Dew Point: 19°   Wind: 21mph
Humidity: 48%   Direction: 340°NNW
Pressure: 30.3"   Gusts: 31mph
Location:  43.76°N, 93.33°W
Report Text: KAEL 310454Z AUTO 34018G27KT 10SM OVC046 03/M07 A3030 RMK AO2
Loading
Personal Weather Stations






























Interactive Weather Map
Tropical Storm Tracking
New forecast layout! Learn more

10-Day Weather Forecast

Advertisements
Track Severe Weather on mobile